SBSN/STM METAR and TAF weather

Enter ICAO airport designator
Station Type Date Time Source
SBSN METAR 2023/02/05 23:00 UTC NOAA

SBSN 052300Z 12005KT 9999 FEW016 27/24 Q1010


Station Type Date Time Source
SBSN Decoded METAR 2023/02/05 23:00 UTC NOAA

Santarem-Aeroporto, Brazil (SBSN) 02-26S 054-43W 72M
Feb 05, 2023 - 06:00 PM EST / 2023.02.05 2300 UTC
Wind: from the ESE (120 degrees) at 6 MPH (5 KT):0
Visibility: greater than 7 mile(s):0
Sky conditions: mostly clear
Temperature: 80 F (27 C)
Dew Point: 75 F (24 C)
Relative Humidity: 83%
Pressure (altimeter): 29.83 in. Hg (1010 hPa)
ob: SBSN 052300Z 12005KT 9999 FEW016 27/24 Q1010
cycle: 23

Station Type Date Time Source
SBSN TAF 2023/02/05 18:13 UTC NOAA

TAF SBSN 051609Z 0518/0618 11008KT 7000 FEW015 SCT020 FEW030TCU TN24/0609Z TX28/0617Z
TEMPO 0518/0523 3500 TSRA FEW010 BKN020 FEW030CB
TEMPO 0616/0618 7000 TS FEW015 SCT020 FEW030CB
RMK PGX

Example: see airport list